Time;durP1;ratioP1;P1;durP2;ratioP2;P2;SDS_P1;SDS_P2;PMS_P1;PMS_P2;Temp;Humidity;BMP_temperature;BMP_pressure;BME280_temperature;BME280_humidity;BME280_pressure;Samples;Min_cycle;Max_cycle;Signal;HPM_P1;HPM_P2
2022/06/07 00:00:44;;;;;;;11.52;6.43;;;11.00;99.90;;;;;;7409417;19;20018;-80
2022/06/07 00:03:17;;;;;;;13.50;6.68;;;11.10;99.90;;;;;;7408237;19;20404;-80
2022/06/07 00:05:48;;;;;;;13.02;6.70;;;11.00;99.90;;;;;;7398405;19;20010;-80
2022/06/07 00:08:19;;;;;;;13.35;5.90;;;10.70;99.90;;;;;;7402055;19;20018;-80
2022/06/07 00:10:49;;;;;;;12.82;7.35;;;11.20;99.90;;;;;;7402232;19;20403;-80
2022/06/07 00:13:20;;;;;;;11.48;6.60;;;11.10;99.90;;;;;;7413480;19;20021;-80
2022/06/07 00:15:51;;;;;;;11.70;6.47;;;11.10;99.90;;;;;;7400022;19;20019;-80
2022/06/07 00:18:23;;;;;;;12.80;7.07;;;11.10;99.90;;;;;;7392691;19;20018;-78
2022/06/07 00:20:53;;;;;;;12.90;6.10;;;10.90;99.90;;;;;;7403147;19;20081;-79
2022/06/07 00:23:23;;;;;;;13.98;6.50;;;10.90;99.90;;;;;;7403822;19;20027;-80
2022/06/07 00:25:56;;;;;;;14.20;6.65;;;11.00;99.90;;;;;;7397829;19;20474;-80
2022/06/07 00:28:26;;;;;;;15.75;7.35;;;11.00;99.90;;;;;;7401911;19;20473;-80
2022/06/07 00:30:56;;;;;;;13.05;6.65;;;10.90;99.90;;;;;;7403437;19;20014;-80
2022/06/07 00:33:28;;;;;;;12.88;6.43;;;10.90;99.90;;;;;;7403430;19;20017;-79
2022/06/07 00:35:58;;;;;;;11.10;6.57;;;11.10;99.90;;;;;;7403106;19;20023;-79
2022/06/07 00:38:28;;;;;;;14.50;6.63;;;11.00;99.90;;;;;;7403598;19;20011;-80
2022/06/07 00:40:58;;;;;;;10.52;6.45;;;11.10;99.90;;;;;;7407356;19;20013;-80
2022/06/07 00:43:28;;;;;;;13.60;6.50;;;11.30;99.90;;;;;;7403392;19;20018;-79
2022/06/07 00:45:59;;;;;;;17.00;7.50;;;11.10;99.90;;;;;;7400248;19;20019;-79
2022/06/07 00:48:34;;;;;;;12.77;7.28;;;11.00;99.90;;;;;;7402897;19;20010;-79
2022/06/07 00:51:09;;;;;;;13.80;7.25;;;10.90;99.90;;;;;;7404350;19;20018;-80
2022/06/07 00:53:40;;;;;;;11.73;7.55;;;11.10;99.90;;;;;;7401690;19;20014;-79
2022/06/07 00:56:09;;;;;;;13.02;7.80;;;11.30;99.90;;;;;;7400270;19;20097;-77
2022/06/07 00:58:39;;;;;;;14.07;8.43;;;11.00;99.90;;;;;;7403527;19;20107;-80
2022/06/07 01:01:09;;;;;;;19.10;8.18;;;11.20;99.90;;;;;;7399049;19;20010;-78
2022/06/07 01:03:42;;;;;;;14.98;8.43;;;11.10;99.90;;;;;;7400412;19;20028;-79
2022/06/07 01:11:36;;;;;;;13.57;9.15;;;11.10;99.90;;;;;;7401201;19;20015;-79
2022/06/07 01:14:07;;;;;;;17.67;9.45;;;11.00;99.90;;;;;;7403203;19;20024;-77
2022/06/07 01:16:36;;;;;;;16.40;9.57;;;11.10;99.90;;;;;;7400502;19;20042;-79
2022/06/07 01:19:09;;;;;;;17.35;9.77;;;11.10;99.90;;;;;;7401247;19;20339;-79
2022/06/07 01:21:45;;;;;;;17.60;9.25;;;11.10;99.90;;;;;;7404229;19;20481;-79
2022/06/07 01:24:17;;;;;;;16.98;10.32;;;11.30;99.90;;;;;;7403743;19;20006;-79
2022/06/07 01:26:47;;;;;;;16.05;9.48;;;10.70;99.90;;;;;;7402271;19;20770;-80
2022/06/07 01:29:18;;;;;;;18.48;9.95;;;11.10;99.90;;;;;;7399278;19;20010;-79
2022/06/07 01:31:49;;;;;;;21.98;10.93;;;11.00;99.90;;;;;;7397793;19;20018;-79
2022/06/07 01:34:19;;;;;;;17.75;10.38;;;11.00;99.90;;;;;;7400620;19;20014;-79
2022/06/07 01:36:51;;;;;;;21.60;11.00;;;11.10;99.90;;;;;;7397630;19;20011;-80
2022/06/07 01:42:03;;;;;;;17.30;10.65;;;11.10;99.90;;;;;;7402550;19;20042;-79
2022/06/07 01:44:38;;;;;;;18.48;10.90;;;11.10;99.90;;;;;;7404390;19;20021;-79
2022/06/07 01:47:11;;;;;;;19.42;10.70;;;11.10;99.90;;;;;;7400665;19;20018;-78
2022/06/07 01:49:41;;;;;;;16.45;10.90;;;11.30;99.90;;;;;;7396737;19;20375;-78
2022/06/07 01:52:16;;;;;;;19.73;11.50;;;11.10;99.90;;;;;;7397448;19;20406;-79
2022/06/07 01:54:45;;;;;;;15.10;9.38;;;11.10;99.90;;;;;;7403622;19;20038;-79
2022/06/07 01:57:16;;;;;;;18.05;10.77;;;11.10;99.90;;;;;;7401807;19;20017;-79
2022/06/07 01:59:45;;;;;;;17.55;10.05;;;10.90;99.90;;;;;;7401767;19;20024;-78
2022/06/07 02:02:15;;;;;;;18.55;10.40;;;10.90;99.90;;;;;;7399390;19;20019;-78
2022/06/07 02:04:46;;;;;;;18.27;10.70;;;11.10;99.90;;;;;;7401393;19;20007;-78
2022/06/07 02:07:19;;;;;;;19.15;10.52;;;11.20;99.90;;;;;;7395631;19;20463;-79
2022/06/07 02:09:49;;;;;;;15.88;9.55;;;11.10;99.90;;;;;;7396706;19;20019;-79
2022/06/07 02:12:19;;;;;;;15.73;10.10;;;10.90;99.90;;;;;;7398614;19;20043;-79
2022/06/07 02:14:50;;;;;;;16.60;9.98;;;11.20;99.90;;;;;;7397572;19;20010;-79
2022/06/07 02:17:19;;;;;;;15.38;9.65;;;11.10;99.90;;;;;;7402305;19;20016;-79
2022/06/07 02:19:49;;;;;;;18.60;11.02;;;11.20;99.90;;;;;;7400441;19;20078;-79
2022/06/07 02:22:22;;;;;;;15.65;9.85;;;11.20;99.90;;;;;;7399518;19;20084;-79
2022/06/07 02:24:51;;;;;;;16.42;10.00;;;11.20;99.90;;;;;;7397364;19;20033;-79
2022/06/07 02:27:23;;;;;;;16.38;9.95;;;11.20;99.90;;;;;;7397006;19;20030;-80
2022/06/07 02:29:56;;;;;;;16.75;9.32;;;11.20;99.90;;;;;;7399353;19;20359;-79
2022/06/07 02:32:28;;;;;;;14.60;8.63;;;11.20;99.90;;;;;;7399471;19;20023;-78
2022/06/07 02:35:00;;;;;;;15.45;9.10;;;11.30;99.90;;;;;;7400638;19;20026;-79
2022/06/07 02:37:34;;;;;;;16.80;9.80;;;11.40;99.90;;;;;;7396006;19;20043;-79
2022/06/07 02:40:04;;;;;;;14.93;8.93;;;11.30;99.90;;;;;;7396559;19;20038;-80
2022/06/07 02:42:34;;;;;;;13.52;8.90;;;11.30;99.90;;;;;;7399637;19;20018;-80
2022/06/07 02:45:04;;;;;;;16.05;9.55;;;11.80;99.90;;;;;;7398521;19;20014;-79
2022/06/07 02:47:34;;;;;;;13.60;7.38;;;11.30;99.90;;;;;;7396689;19;20465;-79
2022/06/07 02:50:03;;;;;;;14.77;9.23;;;11.40;99.90;;;;;;7395784;19;20010;-79
2022/06/07 02:52:37;;;;;;;14.32;8.38;;;11.60;99.90;;;;;;7399658;19;20410;-79
2022/06/07 02:55:08;;;;;;;14.50;8.68;;;11.30;99.90;;;;;;7396484;19;20014;-79
2022/06/07 02:57:38;;;;;;;13.05;8.82;;;11.30;99.90;;;;;;7398118;19;20025;-80
2022/06/07 03:00:10;;;;;;;15.73;8.73;;;11.30;99.90;;;;;;7400091;19;20030;-80
2022/06/07 03:02:40;;;;;;;16.27;8.82;;;11.20;99.90;;;;;;7400755;19;20014;-79
2022/06/07 03:05:10;;;;;;;15.82;9.40;;;11.30;99.90;;;;;;7395128;19;20030;-78
2022/06/07 03:07:44;;;;;;;16.17;9.63;;;11.30;99.90;;;;;;7398268;19;20014;-79
2022/06/07 03:10:15;;;;;;;15.63;9.70;;;11.30;99.90;;;;;;7399589;19;20010;-79
2022/06/07 03:12:45;;;;;;;18.25;9.98;;;11.50;99.90;;;;;;7396229;19;20110;-79
2022/06/07 03:15:16;;;;;;;16.67;9.93;;;11.20;99.90;;;;;;7397139;19;20046;-80
2022/06/07 03:17:46;;;;;;;17.17;9.40;;;11.30;99.90;;;;;;7395075;19;20069;-79
2022/06/07 03:20:17;;;;;;;14.00;9.40;;;11.30;99.90;;;;;;7399850;19;20025;-79
2022/06/07 03:22:49;;;;;;;16.83;9.75;;;11.50;99.90;;;;;;7396789;19;20021;-79
2022/06/07 03:25:20;;;;;;;19.23;10.38;;;11.30;99.90;;;;;;7396484;19;20086;-79
2022/06/07 03:27:50;;;;;;;15.40;9.27;;;11.30;99.90;;;;;;7393154;19;20022;-79
2022/06/07 03:30:21;;;;;;;18.23;9.82;;;11.20;99.90;;;;;;7398824;19;20371;-80
2022/06/07 03:32:51;;;;;;;16.85;10.23;;;11.20;99.90;;;;;;7398019;19;20026;-79
2022/06/07 03:35:21;;;;;;;16.55;9.43;;;11.20;99.90;;;;;;7394588;19;20343;-78
2022/06/07 03:37:54;;;;;;;18.25;9.65;;;11.10;99.90;;;;;;7396078;19;20007;-79
2022/06/07 03:43:07;;;;;;;18.52;10.30;;;11.20;99.90;;;;;;7398341;19;20019;-79
2022/06/07 03:45:36;;;;;;;18.55;9.80;;;11.20;99.90;;;;;;7393861;19;20014;-79
2022/06/07 03:48:08;;;;;;;17.58;9.68;;;11.10;99.90;;;;;;7394507;19;20015;-79
2022/06/07 03:50:39;;;;;;;16.75;10.10;;;11.20;99.90;;;;;;7403296;19;20026;-79
2022/06/07 03:53:11;;;;;;;17.23;10.30;;;11.30;99.90;;;;;;7402493;19;20011;-79
2022/06/07 03:55:47;;;;;;;17.35;10.05;;;11.30;99.90;;;;;;7402132;19;20078;-79
2022/06/07 03:58:18;;;;;;;17.70;9.55;;;11.30;99.90;;;;;;7401035;19;20355;-78
2022/06/07 04:00:48;;;;;;;17.27;10.10;;;11.30;99.90;;;;;;7404541;19;20022;-78
2022/06/07 04:03:18;;;;;;;16.33;9.35;;;11.30;99.90;;;;;;7401150;19;20020;-78
2022/06/07 04:05:49;;;;;;;20.08;10.02;;;11.50;99.90;;;;;;7406693;19;20011;-79
2022/06/07 04:08:22;;;;;;;16.85;9.90;;;11.20;99.90;;;;;;7403872;19;20371;-78
2022/06/07 04:10:54;;;;;;;17.60;10.48;;;11.50;99.90;;;;;;7403314;19;20011;-79
2022/06/07 04:13:27;;;;;;;19.90;10.32;;;11.50;99.90;;;;;;7401386;19;20006;-78
2022/06/07 04:15:58;;;;;;;16.83;9.35;;;11.40;99.90;;;;;;7404993;19;20042;-80
2022/06/07 04:18:27;;;;;;;19.92;10.30;;;11.20;99.90;;;;;;7405329;19;20035;-79
2022/06/07 04:21:01;;;;;;;18.35;9.60;;;11.20;99.90;;;;;;7401953;19;20374;-78
2022/06/07 04:23:35;;;;;;;15.73;10.00;;;11.40;99.90;;;;;;7398904;19;20605;-78
2022/06/07 04:26:09;;;;;;;19.05;10.32;;;11.30;99.90;;;;;;7402240;19;20014;-79
2022/06/07 04:28:39;;;;;;;17.77;9.93;;;11.30;99.90;;;;;;7401935;19;20029;-79
2022/06/07 04:31:13;;;;;;;19.88;10.23;;;11.30;99.90;;;;;;7402805;19;20048;-79
2022/06/07 04:33:44;;;;;;;19.33;10.27;;;11.30;99.90;;;;;;7399654;19;20469;-79
2022/06/07 04:36:15;;;;;;;18.13;10.32;;;11.00;99.90;;;;;;7399518;19;20014;-79
2022/06/07 04:38:49;;;;;;;18.92;10.52;;;11.30;99.90;;;;;;7397748;19;20509;-79
2022/06/07 04:41:21;;;;;;;17.92;10.60;;;11.40;99.90;;;;;;7407813;19;20025;-79
2022/06/07 04:43:52;;;;;;;16.15;9.77;;;11.30;99.90;;;;;;7400561;19;20513;-79
2022/06/07 04:46:23;;;;;;;23.85;11.10;;;11.60;99.90;;;;;;7403747;19;20054;-81
2022/06/07 04:48:53;;;;;;;19.20;9.82;;;11.30;99.90;;;;;;7403593;19;20025;-79
2022/06/07 04:51:27;;;;;;;18.17;8.88;;;11.30;99.90;;;;;;7406325;19;20037;-79
2022/06/07 04:54:01;;;;;;;16.90;9.88;;;11.60;99.90;;;;;;7406592;19;20018;-79
2022/06/07 04:56:33;;;;;;;18.98;9.95;;;11.40;99.90;;;;;;7401606;19;20044;-79
2022/06/07 04:59:05;;;;;;;18.38;10.07;;;11.30;99.90;;;;;;7400295;19;20085;-79
2022/06/07 05:01:37;;;;;;;19.80;10.98;;;11.40;99.90;;;;;;7401757;19;20011;-79
2022/06/07 05:04:09;;;;;;;19.38;10.65;;;11.10;99.90;;;;;;7402461;19;20018;-79
2022/06/07 05:06:41;;;;;;;21.83;11.48;;;11.40;99.90;;;;;;7399592;19;20019;-79
2022/06/07 05:09:17;;;;;;;19.98;11.13;;;11.30;99.90;;;;;;7400102;19;20011;-79
2022/06/07 05:11:49;;;;;;;22.27;11.10;;;11.40;99.90;;;;;;7398604;19;20014;-79
2022/06/07 05:14:19;;;;;;;21.42;11.55;;;11.10;99.90;;;;;;7400558;19;20031;-80
2022/06/07 05:16:50;;;;;;;17.25;10.45;;;11.20;99.90;;;;;;7399254;19;20018;-79
2022/06/07 05:19:21;;;;;;;20.10;10.07;;;11.30;99.90;;;;;;7400765;19;20362;-78
2022/06/07 05:21:51;;;;;;;16.77;9.65;;;11.40;99.90;;;;;;7398454;19;20018;-79
2022/06/07 05:24:23;;;;;;;19.48;10.23;;;11.20;99.90;;;;;;7402635;19;20035;-78
2022/06/07 05:26:55;;;;;;;15.40;8.70;;;11.00;99.90;;;;;;7395685;19;20379;-77
2022/06/07 05:29:29;;;;;;;16.95;9.45;;;11.00;99.90;;;;;;7387414;19;20420;-78
2022/06/07 05:31:58;;;;;;;16.20;9.30;;;;;;;;;;7398866;19;20030;-78
2022/06/07 05:34:28;;;;;;;16.80;9.68;;;11.00;99.90;;;;;;7399992;19;20061;-77
2022/06/07 05:36:58;;;;;;;16.40;10.07;;;11.00;99.90;;;;;;7385400;19;20050;-77
2022/06/07 05:39:31;;;;;;;18.95;10.55;;;10.90;99.90;;;;;;7397400;19;20045;-77
2022/06/07 05:42:02;;;;;;;20.25;10.63;;;10.80;99.90;;;;;;7394824;19;20608;-78
2022/06/07 05:44:33;;;;;;;21.02;11.35;;;11.00;99.90;;;;;;7398537;19;20025;-77
2022/06/07 05:47:03;;;;;;;21.17;11.75;;;11.00;99.90;;;;;;7395667;19;20018;-78
2022/06/07 05:49:32;;;;;;;17.70;11.15;;;11.20;99.90;;;;;;7398826;19;20015;-79
2022/06/07 05:52:02;;;;;;;22.20;11.65;;;11.00;99.90;;;;;;7394825;19;20022;-79
2022/06/07 05:54:35;;;;;;;21.85;11.73;;;11.10;99.90;;;;;;7394337;19;20038;-79
2022/06/07 05:57:05;;;;;;;20.42;12.10;;;11.00;99.90;;;;;;7394350;19;20023;-79
2022/06/07 05:59:34;;;;;;;21.70;11.73;;;11.00;99.90;;;;;;7386409;19;20014;-79
2022/06/07 06:02:03;;;;;;;23.35;12.75;;;11.10;99.90;;;;;;7384881;19;20014;-80
2022/06/07 06:04:32;;;;;;;25.25;12.93;;;11.10;99.90;;;;;;7385998;19;20018;-78
2022/06/07 06:07:03;;;;;;;24.23;12.50;;;10.90;99.90;;;;;;7385922;19;20029;-79
2022/06/07 06:12:16;;;;;;;19.30;10.48;;;10.80;99.90;;;;;;7393479;19;20386;-78
2022/06/07 06:14:45;;;;;;;16.67;8.63;;;10.90;99.90;;;;;;7395711;19;20514;-78
2022/06/07 06:17:14;;;;;;;15.80;7.45;;;10.70;99.90;;;;;;7393817;19;20619;-78
2022/06/07 06:19:43;;;;;;;9.90;6.65;;;10.70;99.90;;;;;;7393235;19;20014;-77
2022/06/07 06:22:13;;;;;;;8.98;6.35;;;10.90;99.90;;;;;;7394139;19;20010;-77
2022/06/07 06:24:45;;;;;;;8.57;5.78;;;10.90;99.90;;;;;;7397161;19;20022;-78
2022/06/07 06:27:14;;;;;;;9.85;5.70;;;10.80;99.90;;;;;;7385846;19;20085;-77
2022/06/07 06:29:42;;;;;;;8.63;5.43;;;10.80;99.90;;;;;;7396638;19;20092;-77
2022/06/07 06:32:12;;;;;;;9.18;5.32;;;10.90;99.90;;;;;;7396364;19;20410;-78
2022/06/07 06:34:40;;;;;;;9.15;4.32;;;10.70;99.90;;;;;;7393017;19;20010;-78
2022/06/07 06:37:09;;;;;;;8.43;4.25;;;11.00;99.90;;;;;;7392828;19;20002;-78
2022/06/07 06:39:38;;;;;;;10.05;4.28;;;;;;;;;;7394358;19;20039;-78
2022/06/07 06:42:10;;;;;;;7.07;4.45;;;10.70;99.90;;;;;;7395813;19;20023;-78
2022/06/07 06:44:39;;;;;;;8.35;4.40;;;10.60;99.90;;;;;;7396773;19;20018;-78
2022/06/07 06:47:09;;;;;;;9.90;4.50;;;10.90;99.90;;;;;;7394860;19;20110;-79
2022/06/07 06:49:38;;;;;;;6.97;4.50;;;10.70;99.90;;;;;;7396179;19;20010;-78
2022/06/07 06:52:07;;;;;;;6.38;4.00;;;10.90;99.90;;;;;;7392726;19;20561;-79
2022/06/07 06:54:37;;;;;;;6.50;4.45;;;10.90;99.90;;;;;;7394312;19;20087;-79
2022/06/07 06:57:06;;;;;;;9.25;4.13;;;10.50;99.90;;;;;;7393756;19;20014;-79
2022/06/07 06:59:38;;;;;;;7.40;4.35;;;10.90;99.90;;;;;;7393023;19;20702;-79
2022/06/07 07:02:09;;;;;;;7.10;4.38;;;11.00;99.90;;;;;;7389304;19;20050;-78
2022/06/07 07:04:41;;;;;;;8.98;5.03;;;10.60;99.90;;;;;;7391113;19;20022;-77
2022/06/07 07:07:12;;;;;;;9.40;4.65;;;10.90;99.90;;;;;;7398985;19;20007;-78
2022/06/07 07:09:44;;;;;;;7.10;4.32;;;11.20;99.90;;;;;;7409384;19;20009;-78
2022/06/07 07:12:15;;;;;;;9.00;4.82;;;10.90;99.90;;;;;;7406596;19;20011;-77
2022/06/07 07:14:48;;;;;;;11.02;5.82;;;10.90;99.90;;;;;;7397213;19;20019;-78
2022/06/07 07:17:19;;;;;;;11.63;6.50;;;10.90;99.90;;;;;;7394583;19;20007;-78
2022/06/07 07:19:50;;;;;;;15.45;7.03;;;11.10;99.90;;;;;;7396047;19;20034;-78
2022/06/07 07:22:23;;;;;;;14.43;7.68;;;10.70;99.90;;;;;;7401096;19;20023;-78
2022/06/07 07:24:55;;;;;;;16.15;6.88;;;10.80;99.90;;;;;;7404850;19;20019;-78
2022/06/07 07:27:25;;;;;;;14.23;5.90;;;10.60;99.90;;;;;;7413558;19;20011;-77
2022/06/07 07:30:04;;;;;;;13.95;6.28;;;10.80;99.90;;;;;;7419510;19;20030;-78
2022/06/07 07:32:44;;;;;;;12.73;5.72;;;11.00;99.90;;;;;;7419167;19;20077;-77
2022/06/07 07:35:17;;;;;;;10.75;5.30;;;10.80;99.90;;;;;;7421973;19;20380;-76
2022/06/07 07:37:47;;;;;;;10.80;4.63;;;10.60;99.90;;;;;;7401303;19;20025;-76
2022/06/07 07:40:18;;;;;;;18.23;4.90;;;10.70;99.90;;;;;;7405910;19;20010;-77
2022/06/07 07:42:48;;;;;;;14.10;4.88;;;10.50;99.90;;;;;;7407242;19;20013;-76
2022/06/07 07:45:23;;;;;;;10.80;5.25;;;10.70;99.90;;;;;;7414908;19;20007;-77
2022/06/07 07:47:53;;;;;;;9.88;4.25;;;10.70;99.90;;;;;;7400218;19;20014;-77
2022/06/07 07:50:24;;;;;;;9.43;3.83;;;10.70;99.90;;;;;;7398122;19;20074;-77
2022/06/07 07:52:56;;;;;;;7.97;3.50;;;10.70;99.90;;;;;;7400581;19;20485;-77
2022/06/07 07:55:26;;;;;;;6.90;3.63;;;10.70;99.90;;;;;;7402217;19;20018;-77
2022/06/07 07:57:57;;;;;;;9.68;3.17;;;10.80;99.90;;;;;;7400229;19;20762;-77
2022/06/07 08:00:31;;;;;;;8.05;2.70;;;10.80;99.90;;;;;;7399551;19;20481;-77
2022/06/07 08:03:00;;;;;;;8.88;2.78;;;10.90;99.90;;;;;;7402423;19;20014;-78
2022/06/07 08:05:32;;;;;;;6.15;2.28;;;10.70;99.90;;;;;;7397630;19;20014;-77
2022/06/07 08:08:02;;;;;;;5.95;2.00;;;10.90;99.90;;;;;;7398874;19;20007;-77
2022/06/07 08:10:32;;;;;;;7.93;2.25;;;11.00;99.90;;;;;;7402869;19;20441;-78
2022/06/07 08:13:03;;;;;;;6.72;2.35;;;11.00;99.90;;;;;;7397542;19;20015;-77
2022/06/07 08:15:35;;;;;;;6.97;2.35;;;11.10;99.90;;;;;;7399272;19;20045;-77
2022/06/07 08:18:07;;;;;;;3.72;2.00;;;11.00;99.90;;;;;;7397516;19;20015;-77
2022/06/07 08:20:39;;;;;;;5.10;2.15;;;11.10;99.90;;;;;;7397233;19;20565;-77
2022/06/07 08:23:12;;;;;;;5.45;1.95;;;11.10;99.90;;;;;;7403476;19;20010;-77
2022/06/07 08:25:42;;;;;;;5.68;2.08;;;11.40;99.90;;;;;;7400072;19;20074;-77
2022/06/07 08:28:12;;;;;;;8.40;2.50;;;11.10;99.90;;;;;;7397091;19;20014;-76
2022/06/07 08:30:46;;;;;;;5.00;2.08;;;11.40;99.90;;;;;;7400006;19;20015;-76
2022/06/07 08:38:42;;;;;;;5.45;2.40;;;11.50;99.90;;;;;;7398757;19;20025;-76
2022/06/07 08:41:23;;;;;;;3.85;2.42;;;11.80;99.90;;;;;;7396815;19;20010;-76
2022/06/07 08:43:53;;;;;;;5.60;2.88;;;11.70;99.90;;;;;;7397213;19;20014;-77
2022/06/07 08:46:31;;;;;;;5.95;2.72;;;11.40;99.90;;;;;;7399010;19;20006;-76
2022/06/07 08:49:01;;;;;;;4.50;2.60;;;11.20;99.90;;;;;;7399801;19;20506;-77
2022/06/07 08:51:37;;;;;;;6.63;2.60;;;11.60;99.90;;;;;;7400126;19;20023;-77
2022/06/07 08:54:17;;;;;;;6.72;3.38;;;11.60;99.90;;;;;;7400743;19;20015;-77
2022/06/07 08:56:48;;;;;;;5.38;2.58;;;11.70;99.90;;;;;;7399959;19;20013;-77
2022/06/07 08:59:20;;;;;;;6.22;2.83;;;11.80;99.90;;;;;;7397887;19;20039;-77
2022/06/07 09:02:01;;;;;;;5.57;2.90;;;11.70;99.90;;;;;;7395055;19;20042;-77
2022/06/07 09:04:33;;;;;;;7.45;2.65;;;11.80;99.90;;;;;;7400712;19;20592;-77
2022/06/07 09:07:07;;;;;;;3.60;2.35;;;11.80;99.90;;;;;;7397953;19;20010;-77
2022/06/07 09:12:24;;;;;;;5.45;1.95;;;11.80;99.90;;;;;;7397805;19;20356;-77
2022/06/07 09:14:58;;;;;;;7.65;2.03;;;11.80;99.90;;;;;;7395870;19;20055;-77
2022/06/07 09:17:41;;;;;;;2.78;1.70;;;11.80;99.90;;;;;;7400307;19;20019;-79
2022/06/07 09:20:17;;;;;;;4.93;1.90;;;12.00;99.90;;;;;;7393915;19;20038;-77
2022/06/07 09:22:58;;;;;;;4.28;2.20;;;12.10;99.90;;;;;;7399209;19;20011;-77
2022/06/07 09:25:34;;;;;;;3.35;2.20;;;12.20;99.90;;;;;;7397310;19;20018;-77
2022/06/07 09:28:05;;;;;;;;;;;12.30;99.90;;;;;;7396782;19;20014;-78
2022/06/07 09:30:38;;;;;;;4.90;2.67;;;12.10;99.90;;;;;;7397368;19;19926;-77
2022/06/07 09:33:26;;;;;;;6.13;2.92;;;12.30;99.90;;;;;;7399221;19;20018;-78
2022/06/07 09:35:58;;;;;;;8.32;3.05;;;12.50;99.90;;;;;;7390387;19;20399;-78
2022/06/07 09:38:35;;;;;;;5.63;3.20;;;12.50;99.90;;;;;;7397677;19;20038;-77
2022/06/07 09:41:36;;;;;;;4.72;3.10;;;12.40;99.90;;;;;;7394873;19;20025;-77
2022/06/07 09:44:15;;;;;;;8.50;3.67;;;12.60;99.90;;;;;;7396209;19;20015;-77
2022/06/07 09:46:46;;;;;;;7.82;3.65;;;12.30;99.90;;;;;;7395182;19;20468;-76
2022/06/07 09:49:37;;;;;;;5.05;2.97;;;12.50;99.90;;;;;;7390809;19;20070;-77
2022/06/07 09:52:21;;;;;;;7.50;3.10;;;12.50;99.90;;;;;;7398888;19;20478;-77
2022/06/07 09:54:53;;;;;;;6.68;2.58;;;12.50;99.90;;;;;;7397701;19;20438;-77
2022/06/07 09:57:39;;;;;;;4.38;2.17;;;12.70;99.90;;;;;;7401345;19;20348;-76
2022/06/07 10:00:22;;;;;;;5.55;2.10;;;12.60;99.90;;;;;;7400630;19;20035;-77
2022/06/07 10:03:16;;;;;;;6.30;2.33;;;12.60;99.90;;;;;;7395748;19;20018;-77
2022/06/07 10:05:53;;;;;;;5.50;2.33;;;12.70;99.90;;;;;;7391905;19;20035;-78
2022/06/07 10:08:47;;;;;;;6.65;2.70;;;12.70;99.90;;;;;;7395865;19;20019;-77
2022/06/07 10:11:22;;;;;;;7.28;2.60;;;12.80;99.90;;;;;;7397826;19;20015;-77
2022/06/07 10:14:04;;;;;;;6.50;2.88;;;13.00;99.90;;;;;;7396184;19;20028;-76
2022/06/07 10:16:45;;;;;;;4.53;2.30;;;12.90;99.90;;;;;;7396699;19;20022;-78
2022/06/07 10:19:24;;;;;;;7.70;2.33;;;13.00;99.90;;;;;;7392418;19;20039;-77
2022/06/07 10:22:14;;;;;;;5.65;2.00;;;12.90;99.90;;;;;;7397061;19;20819;-77
2022/06/07 10:24:51;;;;;;;6.47;2.70;;;12.80;99.90;;;;;;7395400;19;20014;-77
2022/06/07 10:27:23;;;;;;;7.65;2.65;;;13.00;99.90;;;;;;7394421;19;20022;-77
2022/06/07 10:30:15;;;;;;;6.70;2.90;;;13.30;99.90;;;;;;7391934;19;20010;-77
2022/06/07 10:32:57;;;;;;;6.65;2.58;;;13.10;99.90;;;;;;7393159;19;20127;-77
2022/06/07 10:35:39;;;;;;;6.80;2.67;;;13.10;99.90;;;;;;7394500;19;20011;-78
2022/06/07 10:38:21;;;;;;;6.53;1.90;;;13.00;99.90;;;;;;7395556;19;20353;-78
2022/06/07 10:41:02;;;;;;;6.65;2.17;;;13.20;99.90;;;;;;7393325;19;20490;-78
2022/06/07 10:43:36;;;;;;;13.27;2.35;;;13.00;99.90;;;;;;7391942;19;20657;-78
2022/06/07 10:46:05;;;;;;;5.32;1.75;;;12.90;99.90;;;;;;7396332;19;20022;-78
2022/06/07 10:48:38;;;;;;;4.72;1.67;;;13.30;99.90;;;;;;7391088;19;20014;-78
2022/06/07 10:52:20;;;;;;;6.82;2.00;;;12.90;99.90;;;;;;7394631;19;20022;-78
2022/06/07 10:54:12;;;;;;;6.05;1.75;;;12.90;99.90;;;;;;7389662;19;20021;-78
2022/06/07 10:56:48;;;;;;;4.00;1.70;;;12.80;99.90;;;;;;7393036;19;20014;-78
2022/06/07 10:59:22;;;;;;;10.15;1.80;;;13.10;99.90;;;;;;7393275;19;20366;-78
2022/06/07 11:01:57;;;;;;;8.23;1.70;;;13.00;99.90;;;;;;7392205;19;20019;-78
2022/06/07 11:10:04;;;;;;;7.85;2.20;;;12.90;99.90;;;;;;7385504;19;19919;-79
2022/06/07 11:12:38;;;;;;;7.35;2.03;;;12.90;99.90;;;;;;7394781;19;20034;-78
2022/06/07 11:15:16;;;;;;;6.18;1.95;;;13.00;99.90;;;;;;7393803;19;20420;-78
2022/06/07 11:17:49;;;;;;;9.40;2.30;;;12.70;99.90;;;;;;7392416;19;20035;-78
2022/06/07 11:20:21;;;;;;;6.55;1.95;;;13.10;99.90;;;;;;7393248;19;20039;-78
2022/06/07 11:23:05;;;;;;;6.10;2.20;;;13.10;99.90;;;;;;7395019;19;20015;-78
2022/06/07 11:25:39;;;;;;;7.45;1.90;;;13.00;99.90;;;;;;7394399;19;20042;-77
2022/06/07 11:28:15;;;;;;;7.10;2.05;;;13.00;99.90;;;;;;7392279;19;20015;-78
2022/06/07 11:30:54;;;;;;;6.97;1.92;;;13.10;99.90;;;;;;7396161;19;20038;-78
2022/06/07 11:33:42;;;;;;;7.53;2.20;;;13.10;99.90;;;;;;7396321;19;20022;-78
2022/06/07 11:36:33;;;;;;;5.60;1.90;;;13.20;99.90;;;;;;7392526;19;20017;-78
2022/06/07 11:39:07;;;;;;;4.18;2.00;;;13.40;99.90;;;;;;7390822;19;20134;-78
2022/06/07 11:41:48;;;;;;;7.32;2.03;;;13.50;99.90;;;;;;7392229;19;20030;-79
2022/06/07 11:45:00;;;;;;;5.78;1.80;;;13.50;99.90;;;;;;7393973;19;20046;-78
2022/06/07 11:47:38;;;;;;;4.68;1.50;;;13.90;99.90;;;;;;7392204;19;20400;-78
2022/06/07 11:50:31;;;;;;;5.03;1.77;;;14.20;99.90;;;;;;7394655;19;20092;-78
2022/06/07 11:53:21;;;;;;;6.05;1.83;;;13.80;99.90;;;;;;7390383;19;20356;-78
2022/06/07 11:56:00;;;;;;;5.07;1.75;;;13.90;99.90;;;;;;7393904;19;20620;-78
2022/06/07 11:58:58;;;;;;;4.35;1.67;;;13.90;99.90;;;;;;7392725;19;20019;-78
2022/06/07 12:01:44;;;;;;;5.45;1.70;;;13.60;99.90;;;;;;7390311;19;20368;-78
2022/06/07 12:04:54;;;;;;;4.30;1.85;;;13.60;99.90;;;;;;7392974;19;20082;-78
2022/06/07 12:07:29;;;;;;;7.00;2.00;;;13.50;99.90;;;;;;7393417;19;20481;-78
2022/06/07 12:10:02;;;;;;;9.20;1.85;;;13.60;99.90;;;;;;7394725;19;20019;-78
2022/06/07 12:12:40;;;;;;;7.70;2.05;;;13.50;99.90;;;;;;7403764;19;20010;-78
2022/06/07 12:15:19;;;;;;;5.80;1.70;;;13.40;99.90;;;;;;7399784;19;20011;-78
2022/06/07 12:17:59;;;;;;;6.50;1.85;;;13.30;99.90;;;;;;7402633;19;20022;-78
2022/06/07 12:20:35;;;;;;;6.32;1.60;;;13.50;99.90;;;;;;7401577;19;20011;-78
2022/06/07 12:23:22;;;;;;;4.10;1.85;;;13.40;99.90;;;;;;7401753;19;20020;-78
2022/06/07 12:25:58;;;;;;;7.95;2.00;;;13.60;99.90;;;;;;7393511;19;20620;-78
2022/06/07 12:28:38;;;;;;;5.32;1.65;;;13.60;99.90;;;;;;7397820;19;20580;-78
2022/06/07 12:31:26;;;;;;;6.10;1.73;;;13.80;99.90;;;;;;7398190;19;20019;-78
2022/06/07 12:33:58;;;;;;;7.00;2.00;;;13.70;99.90;;;;;;7397839;19;20006;-78
2022/06/07 12:36:33;;;;;;;7.10;2.10;;;14.30;99.90;;;;;;7395930;19;20043;-78
2022/06/07 12:39:06;;;;;;;4.10;1.83;;;14.30;99.90;;;;;;7391932;19;20900;-78
2022/06/07 12:41:39;;;;;;;5.95;1.75;;;14.50;99.90;;;;;;7382243;19;20022;-79
2022/06/07 12:44:25;;;;;;;5.60;2.13;;;14.60;99.90;;;;;;7396614;19;20010;-78
2022/06/07 12:47:01;;;;;;;6.65;1.75;;;14.70;99.90;;;;;;7400285;19;20031;-78
2022/06/07 12:49:34;;;;;;;6.47;1.80;;;14.80;99.90;;;;;;7397008;19;20036;-78
2022/06/07 12:52:06;;;;;;;6.20;1.95;;;14.90;99.90;;;;;;7399157;19;20015;-78
2022/06/07 12:54:38;;;;;;;5.07;1.65;;;14.90;99.90;;;;;;7405507;19;20050;-78
2022/06/07 12:57:23;;;;;;;5.80;1.90;;;14.60;99.90;;;;;;7403970;19;20012;-78
2022/06/07 13:00:00;;;;;;;4.53;1.77;;;14.60;99.90;;;;;;7391529;19;20318;-79
2022/06/07 13:02:40;;;;;;;6.30;1.98;;;14.70;99.90;;;;;;7396454;19;20018;-79
2022/06/07 13:05:13;;;;;;;8.55;1.98;;;14.60;99.90;;;;;;7402161;19;20028;-78
2022/06/07 13:07:48;;;;;;;5.28;1.63;;;14.80;99.90;;;;;;7398525;19;20015;-78
2022/06/07 13:10:23;;;;;;;9.65;2.67;;;14.50;99.90;;;;;;7397817;19;20099;-78
2022/06/07 13:12:57;;;;;;;6.68;1.83;;;14.50;99.90;;;;;;7399408;19;20014;-78
2022/06/07 13:15:29;;;;;;;4.50;1.90;;;14.70;99.90;;;;;;7402563;19;20023;-79
2022/06/07 13:18:06;;;;;;;5.72;1.92;;;16.90;99.90;;;;;;7399125;19;20018;-78
2022/06/07 13:20:40;;;;;;;5.93;1.95;;;14.60;99.90;;;;;;7401486;19;20006;-78
2022/06/07 13:23:25;;;;;;;6.53;1.98;;;15.00;99.90;;;;;;7401661;19;20014;-78
2022/06/07 13:26:10;;;;;;;9.80;2.00;;;15.00;99.90;;;;;;7388338;19;20882;-77
2022/06/07 13:28:41;;;;;;;7.13;2.53;;;14.80;99.90;;;;;;7391326;19;20015;-77
2022/06/07 13:31:29;;;;;;;6.85;2.17;;;15.10;99.90;;;;;;7397553;19;20042;-78
2022/06/07 13:34:08;;;;;;;9.27;1.90;;;14.70;99.90;;;;;;7394656;19;20514;-78
2022/06/07 13:36:41;;;;;;;6.65;2.28;;;15.00;99.90;;;;;;7389942;19;20093;-78
2022/06/07 13:39:24;;;;;;;6.57;1.98;;;14.00;99.90;;;;;;7395395;19;20014;-78
2022/06/07 13:41:56;;;;;;;7.97;2.15;;;15.70;99.90;;;;;;7394738;19;20568;-78